sensor_id;sensor_type;location;lat;lon;timestamp;pressure;altitude;pressure_sealevel;temperature;humidity
21086;BME280;34247;50.064;19.970;2023-06-22T00:01:10;99424.84;;;24.10;86.61
21086;BME280;34247;50.064;19.970;2023-06-22T00:02:44;99424.00;;;24.09;86.76
21086;BME280;34247;50.064;19.970;2023-06-22T00:04:17;99428.59;;;24.09;86.68
21086;BME280;34247;50.064;19.970;2023-06-22T00:05:52;99427.31;;;24.05;86.97
21086;BME280;34247;50.064;19.970;2023-06-22T00:07:25;99438.31;;;24.03;86.79
21086;BME280;34247;50.064;19.970;2023-06-22T00:08:58;99429.72;;;24.00;87.05
21086;BME280;34247;50.064;19.970;2023-06-22T00:10:31;99436.63;;;24.02;87.26
21086;BME280;34247;50.064;19.970;2023-06-22T00:12:07;99438.50;;;24.02;87.32
21086;BME280;34247;50.064;19.970;2023-06-22T00:13:40;99440.56;;;24.00;87.83
21086;BME280;34247;50.064;19.970;2023-06-22T00:15:14;99444.31;;;23.99;87.86
21086;BME280;34247;50.064;19.970;2023-06-22T00:16:47;99431.94;;;23.96;87.94
21086;BME280;34247;50.064;19.970;2023-06-22T00:18:21;99445.16;;;23.99;88.30
21086;BME280;34247;50.064;19.970;2023-06-22T00:19:54;99439.72;;;23.99;88.39
21086;BME280;34247;50.064;19.970;2023-06-22T00:21:27;99427.00;;;24.00;88.29
21086;BME280;34247;50.064;19.970;2023-06-22T00:23:00;99425.97;;;24.01;88.63
21086;BME280;34247;50.064;19.970;2023-06-22T00:24:33;99426.81;;;24.01;88.74
21086;BME280;34247;50.064;19.970;2023-06-22T00:26:07;99418.69;;;24.01;88.79
21086;BME280;34247;50.064;19.970;2023-06-22T00:27:41;99416.63;;;24.03;88.88
21086;BME280;34247;50.064;19.970;2023-06-22T00:29:15;99414.75;;;24.04;88.75
21086;BME280;34247;50.064;19.970;2023-06-22T00:30:51;99414.94;;;24.02;88.61
21086;BME280;34247;50.064;19.970;2023-06-22T00:32:25;99411.59;;;24.00;88.80
21086;BME280;34247;50.064;19.970;2023-06-22T00:33:59;99411.59;;;24.00;88.70
21086;BME280;34247;50.064;19.970;2023-06-22T00:35:34;99408.22;;;23.98;89.01
21086;BME280;34247;50.064;19.970;2023-06-22T00:37:08;99409.22;;;23.97;89.10
21086;BME280;34247;50.064;19.970;2023-06-22T00:38:41;99406.34;;;23.99;88.92
21086;BME280;34247;50.064;19.970;2023-06-22T00:40:15;99395.50;;;23.99;89.01
21086;BME280;34247;50.064;19.970;2023-06-22T00:41:49;99394.84;;;23.97;89.24
21086;BME280;34247;50.064;19.970;2023-06-22T00:43:22;99395.03;;;23.95;89.18
21086;BME280;34247;50.064;19.970;2023-06-22T00:44:55;99391.69;;;23.93;89.49
21086;BME280;34247;50.064;19.970;2023-06-22T00:46:29;99400.00;;;23.91;89.63
21086;BME280;34247;50.064;19.970;2023-06-22T00:48:10;99392.03;;;23.90;89.73
21086;BME280;34247;50.064;19.970;2023-06-22T00:49:47;99391.59;;;23.86;89.75
21086;BME280;34247;50.064;19.970;2023-06-22T00:51:22;99391.59;;;23.86;89.78
21086;BME280;34247;50.064;19.970;2023-06-22T00:52:59;99394.50;;;23.85;89.93
21086;BME280;34247;50.064;19.970;2023-06-22T00:54:34;99389.63;;;23.80;90.11
21086;BME280;34247;50.064;19.970;2023-06-22T00:56:07;99399.25;;;23.83;90.00
21086;BME280;34247;50.064;19.970;2023-06-22T00:57:41;99393.38;;;23.79;89.98
21086;BME280;34247;50.064;19.970;2023-06-22T00:59:14;99388.97;;;23.78;90.10
21086;BME280;34247;50.064;19.970;2023-06-22T01:00:49;99391.03;;;23.76;90.06
21086;BME280;34247;50.064;19.970;2023-06-22T01:02:32;99389.16;;;23.77;90.14
21086;BME280;34247;50.064;19.970;2023-06-22T01:05:22;99377.56;;;23.68;90.23
21086;BME280;34247;50.064;19.970;2023-06-22T01:07:24;99377.41;;;23.70;90.19
21086;BME280;34247;50.064;19.970;2023-06-22T01:09:28;99376.63;;;23.61;90.46
21086;BME280;34247;50.064;19.970;2023-06-22T01:11:18;99379.03;;;23.56;90.72
21086;BME280;34247;50.064;19.970;2023-06-22T01:13:01;99383.97;;;23.52;90.78
21086;BME280;34247;50.064;19.970;2023-06-22T01:14:49;99382.88;;;23.47;90.98
21086;BME280;34247;50.064;19.970;2023-06-22T01:16:33;99382.38;;;23.43;91.34
21086;BME280;34247;50.064;19.970;2023-06-22T01:18:10;99382.09;;;23.38;91.71
21086;BME280;34247;50.064;19.970;2023-06-22T01:19:46;99384.34;;;23.34;92.22
21086;BME280;34247;50.064;19.970;2023-06-22T01:21:23;99391.13;;;23.30;92.26
21086;BME280;34247;50.064;19.970;2023-06-22T01:25:28;99388.50;;;23.22;92.62
21086;BME280;34247;50.064;19.970;2023-06-22T01:27:25;99391.22;;;23.22;92.70
21086;BME280;34247;50.064;19.970;2023-06-22T01:29:06;99386.19;;;23.19;92.91
21086;BME280;34247;50.064;19.970;2023-06-22T01:30:45;99389.53;;;23.21;93.23
21086;BME280;34247;50.064;19.970;2023-06-22T01:32:20;99390.19;;;23.23;93.06
21086;BME280;34247;50.064;19.970;2023-06-22T01:33:58;99385.25;;;23.27;92.91
21086;BME280;34247;50.064;19.970;2023-06-22T01:35:36;99381.72;;;23.26;92.82
21086;BME280;34247;50.064;19.970;2023-06-22T01:37:12;99395.25;;;23.26;93.04
21086;BME280;34247;50.064;19.970;2023-06-22T01:38:50;99391.03;;;23.24;92.75
21086;BME280;34247;50.064;19.970;2023-06-22T01:40:25;99400.66;;;23.26;93.20
21086;BME280;34247;50.064;19.970;2023-06-22T01:42:04;99396.94;;;23.27;92.94
21086;BME280;34247;50.064;19.970;2023-06-22T01:43:39;99401.50;;;23.27;93.26
21086;BME280;34247;50.064;19.970;2023-06-22T01:45:17;99401.13;;;23.30;92.92
21086;BME280;34247;50.064;19.970;2023-06-22T01:46:52;99395.72;;;23.30;93.27
21086;BME280;34247;50.064;19.970;2023-06-22T01:48:26;99398.91;;;23.33;92.92
21086;BME280;34247;50.064;19.970;2023-06-22T01:50:01;99402.44;;;23.34;93.10
21086;BME280;34247;50.064;19.970;2023-06-22T01:51:37;99406.19;;;23.33;93.09
21086;BME280;34247;50.064;19.970;2023-06-22T01:53:13;99408.72;;;23.34;93.05
21086;BME280;34247;50.064;19.970;2023-06-22T01:54:47;99401.31;;;23.28;93.25
21086;BME280;34247;50.064;19.970;2023-06-22T01:56:21;99403.19;;;23.28;93.30
21086;BME280;34247;50.064;19.970;2023-06-22T01:57:54;99409.91;;;23.32;93.48
21086;BME280;34247;50.064;19.970;2023-06-22T01:59:52;99410.75;;;23.32;93.51
21086;BME280;34247;50.064;19.970;2023-06-22T02:01:42;99398.22;;;23.31;93.63
21086;BME280;34247;50.064;19.970;2023-06-22T02:03:27;99401.63;;;23.33;93.72
21086;BME280;34247;50.064;19.970;2023-06-22T02:05:07;99405.81;;;23.36;93.70
21086;BME280;34247;50.064;19.970;2023-06-22T02:06:45;99407.47;;;23.37;93.65
21086;BME280;34247;50.064;19.970;2023-06-22T02:08:31;99404.59;;;23.38;93.70
21086;BME280;34247;50.064;19.970;2023-06-22T02:10:09;99407.28;;;23.38;93.52
21086;BME280;34247;50.064;19.970;2023-06-22T02:11:46;99401.88;;;23.38;93.26
21086;BME280;34247;50.064;19.970;2023-06-22T02:13:21;99401.22;;;23.36;93.47
21086;BME280;34247;50.064;19.970;2023-06-22T02:14:55;99399.75;;;23.34;93.55
21086;BME280;34247;50.064;19.970;2023-06-22T02:16:31;99407.03;;;23.33;93.51
21086;BME280;34247;50.064;19.970;2023-06-22T02:18:05;99412.78;;;23.30;93.66
21086;BME280;34247;50.064;19.970;2023-06-22T02:19:41;99402.34;;;23.27;93.85
21086;BME280;34247;50.064;19.970;2023-06-22T02:21:15;99406.06;;;23.26;93.93
21086;BME280;34247;50.064;19.970;2023-06-22T02:22:48;99408.94;;;23.25;93.94
21086;BME280;34247;50.064;19.970;2023-06-22T02:24:21;99405.25;;;23.26;94.08
21086;BME280;34247;50.064;19.970;2023-06-22T02:25:54;99405.41;;;23.24;94.22
21086;BME280;34247;50.064;19.970;2023-06-22T02:27:28;99405.41;;;23.24;94.26
21086;BME280;34247;50.064;19.970;2023-06-22T02:29:01;99397.47;;;23.23;94.44
21086;BME280;34247;50.064;19.970;2023-06-22T02:30:35;99412.53;;;23.25;94.48
21086;BME280;34247;50.064;19.970;2023-06-22T02:32:08;99412.53;;;23.25;94.16
21086;BME280;34247;50.064;19.970;2023-06-22T02:33:41;99422.31;;;23.26;94.18
21086;BME280;34247;50.064;19.970;2023-06-22T02:35:18;99419.78;;;23.25;94.16
21086;BME280;34247;50.064;19.970;2023-06-22T02:36:52;99417.94;;;23.25;94.10
21086;BME280;34247;50.064;19.970;2023-06-22T02:38:25;99422.31;;;23.26;94.38
21086;BME280;34247;50.064;19.970;2023-06-22T02:39:58;99418.78;;;23.26;93.95
21086;BME280;34247;50.064;19.970;2023-06-22T02:41:31;99429.59;;;23.26;94.14
21086;BME280;34247;50.064;19.970;2023-06-22T02:43:05;99430.44;;;23.26;94.12
21086;BME280;34247;50.064;19.970;2023-06-22T02:44:38;99434.19;;;23.25;94.20
21086;BME280;34247;50.064;19.970;2023-06-22T02:46:12;99426.22;;;23.24;94.16
21086;BME280;34247;50.064;19.970;2023-06-22T02:47:46;99427.44;;;23.21;94.23
21086;BME280;34247;50.064;19.970;2023-06-22T02:49:19;99431.81;;;23.22;94.21
21086;BME280;34247;50.064;19.970;2023-06-22T02:50:53;99429.97;;;23.23;94.18
21086;BME280;34247;50.064;19.970;2023-06-22T02:52:26;99424.53;;;23.23;94.18
21086;BME280;34247;50.064;19.970;2023-06-22T02:54:00;99428.09;;;23.23;94.19
21086;BME280;34247;50.064;19.970;2023-06-22T02:55:33;99426.22;;;23.24;94.16
21086;BME280;34247;50.064;19.970;2023-06-22T02:57:07;99423.06;;;23.20;94.17
21086;BME280;34247;50.064;19.970;2023-06-22T02:58:40;99430.34;;;23.20;94.18
21086;BME280;34247;50.064;19.970;2023-06-22T03:00:14;99429.31;;;23.21;94.16
21086;BME280;34247;50.064;19.970;2023-06-22T03:01:47;99432.66;;;23.23;94.08
21086;BME280;34247;50.064;19.970;2023-06-22T03:03:20;99432.84;;;23.21;94.07
21086;BME280;34247;50.064;19.970;2023-06-22T03:04:54;99434.72;;;23.21;94.38
21086;BME280;34247;50.064;19.970;2023-06-22T03:06:27;99434.72;;;23.21;94.40
21086;BME280;34247;50.064;19.970;2023-06-22T03:08:00;99437.44;;;23.21;94.07
21086;BME280;34247;50.064;19.970;2023-06-22T03:09:33;99436.78;;;23.19;94.32
21086;BME280;34247;50.064;19.970;2023-06-22T03:11:07;99430.88;;;23.15;94.78
21086;BME280;34247;50.064;19.970;2023-06-22T03:12:41;99433.22;;;23.18;94.65
21086;BME280;34247;50.064;19.970;2023-06-22T03:14:15;99434.91;;;23.19;94.45
21086;BME280;34247;50.064;19.970;2023-06-22T03:15:49;99429.50;;;23.19;94.73
21086;BME280;34247;50.064;19.970;2023-06-22T03:17:22;99431.19;;;23.20;94.58
21086;BME280;34247;50.064;19.970;2023-06-22T03:18:55;99436.22;;;23.23;94.79
21086;BME280;34247;50.064;19.970;2023-06-22T03:20:29;99432.47;;;23.24;94.67
21086;BME280;34247;50.064;19.970;2023-06-22T03:22:02;99449.41;;;23.26;94.50
21086;BME280;34247;50.064;19.970;2023-06-22T03:23:36;99449.41;;;23.26;94.42
21086;BME280;34247;50.064;19.970;2023-06-22T03:25:09;99444.34;;;23.23;94.43
21086;BME280;34247;50.064;19.970;2023-06-22T03:26:43;99448.25;;;23.21;94.60
21086;BME280;34247;50.064;19.970;2023-06-22T03:28:16;99453.69;;;23.21;94.95
21086;BME280;34247;50.064;19.970;2023-06-22T03:29:49;99454.13;;;23.24;94.68
21086;BME280;34247;50.064;19.970;2023-06-22T03:31:23;99453.31;;;23.24;94.53
21086;BME280;34247;50.064;19.970;2023-06-22T03:32:56;99457.53;;;23.26;94.50
21086;BME280;34247;50.064;19.970;2023-06-22T03:34:29;99453.97;;;23.26;94.42
21086;BME280;34247;50.064;19.970;2023-06-22T03:36:03;99458.19;;;23.28;94.65
21086;BME280;34247;50.064;19.970;2023-06-22T03:37:37;99455.47;;;23.28;94.48
21086;BME280;34247;50.064;19.970;2023-06-22T03:39:10;99454.63;;;23.28;94.35
21086;BME280;34247;50.064;19.970;2023-06-22T03:40:43;99454.63;;;23.28;94.48
21086;BME280;34247;50.064;19.970;2023-06-22T03:42:17;99451.09;;;23.27;94.56
21086;BME280;34247;50.064;19.970;2023-06-22T03:43:51;99453.78;;;23.27;94.53
21086;BME280;34247;50.064;19.970;2023-06-22T03:45:24;99451.53;;;23.31;94.42
21086;BME280;34247;50.064;19.970;2023-06-22T03:46:57;99452.22;;;23.33;94.06
21086;BME280;34247;50.064;19.970;2023-06-22T03:48:30;99458.28;;;23.35;93.86
21086;BME280;34247;50.064;19.970;2023-06-22T03:50:04;99460.81;;;23.36;93.79
21086;BME280;34247;50.064;19.970;2023-06-22T03:51:39;99449.97;;;23.36;93.57
21086;BME280;34247;50.064;19.970;2023-06-22T03:53:12;99462.03;;;23.34;93.71
21086;BME280;34247;50.064;19.970;2023-06-22T03:54:45;99462.22;;;23.32;93.61
21086;BME280;34247;50.064;19.970;2023-06-22T03:56:18;99463.22;;;23.31;93.67
21086;BME280;34247;50.064;19.970;2023-06-22T03:57:51;99471.19;;;23.33;93.42
21086;BME280;34247;50.064;19.970;2023-06-22T03:59:25;99481.81;;;23.34;93.48
21086;BME280;34247;50.064;19.970;2023-06-22T04:00:59;99485.56;;;23.33;93.34
21086;BME280;34247;50.064;19.970;2023-06-22T04:02:32;99481.00;;;23.34;93.39
21086;BME280;34247;50.064;19.970;2023-06-22T04:04:09;99483.50;;;23.35;93.44
21086;BME280;34247;50.064;19.970;2023-06-22T04:05:42;99487.25;;;23.34;93.42
21086;BME280;34247;50.064;19.970;2023-06-22T04:07:16;99484.34;;;23.36;93.43
21086;BME280;34247;50.064;19.970;2023-06-22T04:08:50;99479.78;;;23.36;93.38
21086;BME280;34247;50.064;19.970;2023-06-22T04:10:23;99476.72;;;23.39;93.25
21086;BME280;34247;50.064;19.970;2023-06-22T04:11:56;99476.34;;;23.43;93.12
21086;BME280;34247;50.064;19.970;2023-06-22T04:13:30;99485.81;;;23.47;92.85
21086;BME280;34247;50.064;19.970;2023-06-22T04:15:04;99481.69;;;23.51;92.68
21086;BME280;34247;50.064;19.970;2023-06-22T04:16:39;99484.56;;;23.49;92.64
21086;BME280;34247;50.064;19.970;2023-06-22T04:18:12;99482.72;;;23.50;92.30
21086;BME280;34247;50.064;19.970;2023-06-22T04:19:45;99484.38;;;23.51;92.36
21086;BME280;34247;50.064;19.970;2023-06-22T04:21:19;99480.94;;;23.57;91.91
21086;BME280;34247;50.064;19.970;2023-06-22T04:22:54;99482.13;;;23.62;91.70
21086;BME280;34247;50.064;19.970;2023-06-22T04:24:27;99486.44;;;23.72;91.48
21086;BME280;34247;50.064;19.970;2023-06-22T04:26:00;99480.94;;;23.80;90.72
21086;BME280;34247;50.064;19.970;2023-06-22T04:27:34;99485.41;;;23.87;90.32
21086;BME280;34247;50.064;19.970;2023-06-22T04:29:10;99487.50;;;24.00;89.65
21086;BME280;34247;50.064;19.970;2023-06-22T04:30:46;99485.44;;;24.17;88.55
21086;BME280;34247;50.064;19.970;2023-06-22T04:32:19;99488.84;;;24.34;87.53
21086;BME280;34247;50.064;19.970;2023-06-22T04:33:53;99489.66;;;24.49;86.39
21086;BME280;34247;50.064;19.970;2023-06-22T04:35:26;99488.97;;;24.62;85.34
21086;BME280;34247;50.064;19.970;2023-06-22T04:36:59;99493.53;;;24.76;84.61
21086;BME280;34247;50.064;19.970;2023-06-22T04:38:32;99492.28;;;24.93;83.75
21086;BME280;34247;50.064;19.970;2023-06-22T04:40:08;99502.53;;;25.13;82.40
21086;BME280;34247;50.064;19.970;2023-06-22T04:41:43;99503.13;;;25.29;81.66
21086;BME280;34247;50.064;19.970;2023-06-22T04:43:17;99509.13;;;25.46;80.43
21086;BME280;34247;50.064;19.970;2023-06-22T04:44:50;99501.94;;;25.60;79.05
21086;BME280;34247;50.064;19.970;2023-06-22T04:46:24;99491.84;;;25.75;78.19
21086;BME280;34247;50.064;19.970;2023-06-22T04:47:58;99502.41;;;25.92;77.41
21086;BME280;34247;50.064;19.970;2023-06-22T04:49:32;99491.00;;;26.03;76.03
21086;BME280;34247;50.064;19.970;2023-06-22T04:51:07;99499.41;;;26.15;75.52
21086;BME280;34247;50.064;19.970;2023-06-22T04:52:40;99503.44;;;26.19;74.50
21086;BME280;34247;50.064;19.970;2023-06-22T04:54:13;99497.56;;;26.22;74.11
21086;BME280;34247;50.064;19.970;2023-06-22T04:55:46;99490.97;;;26.37;73.86
21086;BME280;34247;50.064;19.970;2023-06-22T04:57:19;99495.66;;;26.50;72.96
21086;BME280;34247;50.064;19.970;2023-06-22T04:58:53;99490.28;;;26.63;72.19
21086;BME280;34247;50.064;19.970;2023-06-22T05:00:27;99489.47;;;26.70;71.33
21086;BME280;34247;50.064;19.970;2023-06-22T05:02:01;99490.97;;;26.79;71.10
21086;BME280;34247;50.064;19.970;2023-06-22T05:03:35;99483.25;;;26.89;70.34
21086;BME280;34247;50.064;19.970;2023-06-22T05:05:08;99487.47;;;26.98;69.99
21086;BME280;34247;50.064;19.970;2023-06-22T05:06:41;99494.03;;;27.10;69.52
21086;BME280;34247;50.064;19.970;2023-06-22T05:08:14;99489.63;;;27.29;68.39
21086;BME280;34247;50.064;19.970;2023-06-22T05:09:47;99499.28;;;27.45;67.55
21086;BME280;34247;50.064;19.970;2023-06-22T05:11:20;99506.88;;;27.63;66.75
21086;BME280;34247;50.064;19.970;2023-06-22T05:12:53;99502.28;;;27.77;65.96
21086;BME280;34247;50.064;19.970;2023-06-22T05:14:27;99515.47;;;27.93;64.97
21086;BME280;34247;50.064;19.970;2023-06-22T05:16:00;99509.38;;;28.11;64.62
21086;BME280;34247;50.064;19.970;2023-06-22T05:17:36;99513.97;;;28.30;63.87
21086;BME280;34247;50.064;19.970;2023-06-22T05:19:10;99523.16;;;28.49;62.93
21086;BME280;34247;50.064;19.970;2023-06-22T05:20:43;99517.00;;;28.60;62.36
21086;BME280;34247;50.064;19.970;2023-06-22T05:22:17;99509.59;;;28.74;61.55
21086;BME280;34247;50.064;19.970;2023-06-22T05:23:52;99514.59;;;28.90;61.41
21086;BME280;34247;50.064;19.970;2023-06-22T05:25:26;99511.59;;;29.05;60.61
21086;BME280;34247;50.064;19.970;2023-06-22T05:26:59;99510.94;;;29.09;59.60
21086;BME280;34247;50.064;19.970;2023-06-22T05:28:33;99510.56;;;29.06;59.96
21086;BME280;34247;50.064;19.970;2023-06-22T05:30:08;99508.63;;;29.13;60.13
21086;BME280;34247;50.064;19.970;2023-06-22T05:31:42;99512.16;;;29.20;59.66
21086;BME280;34247;50.064;19.970;2023-06-22T05:33:16;99508.97;;;29.23;59.37
21086;BME280;34247;50.064;19.970;2023-06-22T05:34:49;99507.28;;;29.22;59.40
21086;BME280;34247;50.064;19.970;2023-06-22T05:36:22;99510.63;;;29.24;59.61
21086;BME280;34247;50.064;19.970;2023-06-22T05:37:56;99512.06;;;29.33;59.20
21086;BME280;34247;50.064;19.970;2023-06-22T05:39:29;99515.31;;;29.49;58.95
21086;BME280;34247;50.064;19.970;2023-06-22T05:41:03;99505.97;;;29.63;58.43
21086;BME280;34247;50.064;19.970;2023-06-22T05:42:38;99508.56;;;29.76;57.83
21086;BME280;34247;50.064;19.970;2023-06-22T05:44:11;99516.13;;;29.81;58.23
21086;BME280;34247;50.064;19.970;2023-06-22T05:45:44;99516.44;;;29.91;57.50
21086;BME280;34247;50.064;19.970;2023-06-22T05:47:18;99515.13;;;30.00;57.23
21086;BME280;34247;50.064;19.970;2023-06-22T05:48:51;99518.41;;;30.09;57.21
21086;BME280;34247;50.064;19.970;2023-06-22T05:50:25;99511.97;;;30.22;56.58
21086;BME280;34247;50.064;19.970;2023-06-22T05:51:59;99525.31;;;30.36;56.10
21086;BME280;34247;50.064;19.970;2023-06-22T05:53:32;99518.91;;;30.42;55.92
21086;BME280;34247;50.064;19.970;2023-06-22T05:55:07;99525.66;;;30.40;55.78
21086;BME280;34247;50.064;19.970;2023-06-22T05:56:41;99527.72;;;30.44;55.71
21086;BME280;34247;50.064;19.970;2023-06-22T05:58:15;99530.63;;;30.50;55.86
21086;BME280;34247;50.064;19.970;2023-06-22T05:59:48;99528.19;;;30.60;55.44
21086;BME280;34247;50.064;19.970;2023-06-22T06:01:21;99529.81;;;30.67;55.24
21086;BME280;34247;50.064;19.970;2023-06-22T06:02:55;99529.56;;;30.87;54.30
21086;BME280;34247;50.064;19.970;2023-06-22T06:04:29;99532.56;;;31.16;53.59
21086;BME280;34247;50.064;19.970;2023-06-22T06:06:02;99528.34;;;31.43;52.53
21086;BME280;34247;50.064;19.970;2023-06-22T06:07:35;99528.53;;;31.72;51.66
21086;BME280;34247;50.064;19.970;2023-06-22T06:09:09;99530.16;;;32.03;50.79
21086;BME280;34247;50.064;19.970;2023-06-22T06:10:42;99546.97;;;32.30;50.07
21086;BME280;34247;50.064;19.970;2023-06-22T06:12:16;99547.81;;;32.30;49.94
21086;BME280;34247;50.064;19.970;2023-06-22T06:13:50;99544.72;;;32.27;49.88
21086;BME280;34247;50.064;19.970;2023-06-22T06:15:24;99545.91;;;32.19;50.09
21086;BME280;34247;50.064;19.970;2023-06-22T06:16:57;99544.72;;;32.03;50.47
21086;BME280;34247;50.064;19.970;2023-06-22T06:18:30;99548.50;;;31.79;50.96
21086;BME280;34247;50.064;19.970;2023-06-22T06:20:05;99544.50;;;31.51;51.56
21086;BME280;34247;50.064;19.970;2023-06-22T06:21:39;99547.38;;;31.26;52.25
21086;BME280;34247;50.064;19.970;2023-06-22T06:23:12;99545.25;;;31.28;52.51
21086;BME280;34247;50.064;19.970;2023-06-22T06:24:45;99543.78;;;31.56;51.81
21086;BME280;34247;50.064;19.970;2023-06-22T06:26:19;99552.47;;;31.95;50.43
21086;BME280;34247;50.064;19.970;2023-06-22T06:27:53;99544.59;;;32.22;49.52
21086;BME280;34247;50.064;19.970;2023-06-22T06:29:29;99544.63;;;32.33;49.39
21086;BME280;34247;50.064;19.970;2023-06-22T06:31:02;99548.53;;;32.37;49.25
21086;BME280;34247;50.064;19.970;2023-06-22T06:32:35;99550.78;;;32.29;49.15
21086;BME280;34247;50.064;19.970;2023-06-22T06:34:09;99548.78;;;32.24;49.40
21086;BME280;34247;50.064;19.970;2023-06-22T06:35:43;99554.03;;;32.14;49.88
21086;BME280;34247;50.064;19.970;2023-06-22T06:37:17;99557.81;;;32.01;50.18
21086;BME280;34247;50.064;19.970;2023-06-22T06:38:53;99552.34;;;31.90;50.39
21086;BME280;34247;50.064;19.970;2023-06-22T06:40:27;99552.31;;;31.78;50.73
21086;BME280;34247;50.064;19.970;2023-06-22T06:42:04;99554.84;;;31.91;50.08
21086;BME280;34247;50.064;19.970;2023-06-22T06:43:38;99558.69;;;32.14;50.15
21086;BME280;34247;50.064;19.970;2023-06-22T06:45:12;99561.06;;;32.57;48.85
21086;BME280;34247;50.064;19.970;2023-06-22T06:46:46;99558.03;;;32.93;47.78
21086;BME280;34247;50.064;19.970;2023-06-22T06:48:20;99557.03;;;33.40;46.68
21086;BME280;34247;50.064;19.970;2023-06-22T06:49:53;99551.91;;;33.77;45.54
21086;BME280;34247;50.064;19.970;2023-06-22T06:51:26;99553.50;;;34.23;44.65
21086;BME280;34247;50.064;19.970;2023-06-22T06:52:59;99552.56;;;34.35;44.52
21086;BME280;34247;50.064;19.970;2023-06-22T06:54:32;99551.16;;;34.15;44.88
21086;BME280;34247;50.064;19.970;2023-06-22T06:56:05;99544.56;;;33.83;45.17
21086;BME280;34247;50.064;19.970;2023-06-22T06:57:40;99552.22;;;33.47;46.23
21086;BME280;34247;50.064;19.970;2023-06-22T06:59:14;99559.41;;;33.08;46.92
21086;BME280;34247;50.064;19.970;2023-06-22T07:00:47;99570.84;;;32.64;48.38
21086;BME280;34247;50.064;19.970;2023-06-22T07:02:20;99557.72;;;32.20;49.53
21086;BME280;34247;50.064;19.970;2023-06-22T07:03:53;99560.94;;;31.81;50.57
21086;BME280;34247;50.064;19.970;2023-06-22T07:05:27;99561.66;;;31.89;51.00
21086;BME280;34247;50.064;19.970;2023-06-22T07:07:02;99557.41;;;32.40;49.44
21086;BME280;34247;50.064;19.970;2023-06-22T07:08:37;99555.84;;;32.96;48.07
21086;BME280;34247;50.064;19.970;2023-06-22T07:10:11;99552.69;;;33.44;47.07
21086;BME280;34247;50.064;19.970;2023-06-22T07:11:44;99545.03;;;33.91;45.74
21086;BME280;34247;50.064;19.970;2023-06-22T07:13:17;99542.78;;;34.44;44.52
21086;BME280;34247;50.064;19.970;2023-06-22T07:14:51;99545.94;;;34.74;43.58
21086;BME280;34247;50.064;19.970;2023-06-22T07:16:24;99551.81;;;34.78;43.60
21086;BME280;34247;50.064;19.970;2023-06-22T07:17:58;99544.88;;;34.97;43.08
21086;BME280;34247;50.064;19.970;2023-06-22T07:19:33;99540.63;;;35.12;42.84
21086;BME280;34247;50.064;19.970;2023-06-22T07:21:08;99539.41;;;35.51;41.79
21086;BME280;34247;50.064;19.970;2023-06-22T07:22:44;99546.88;;;36.15;40.92
21086;BME280;34247;50.064;19.970;2023-06-22T07:24:18;99539.97;;;36.60;39.52
21086;BME280;34247;50.064;19.970;2023-06-22T07:25:51;99544.59;;;37.12;38.51
21086;BME280;34247;50.064;19.970;2023-06-22T07:27:25;99543.63;;;37.74;37.64
21086;BME280;34247;50.064;19.970;2023-06-22T07:28:59;99543.63;;;38.25;36.25
21086;BME280;34247;50.064;19.970;2023-06-22T07:30:34;99538.59;;;38.47;35.73
21086;BME280;34247;50.064;19.970;2023-06-22T07:32:08;99539.91;;;38.75;35.50
21086;BME280;34247;50.064;19.970;2023-06-22T07:33:42;99542.72;;;38.55;35.85
21086;BME280;34247;50.064;19.970;2023-06-22T07:35:16;99535.13;;;38.86;35.42
21086;BME280;34247;50.064;19.970;2023-06-22T07:36:50;99541.03;;;39.29;34.77
21086;BME280;34247;50.064;19.970;2023-06-22T07:38:24;99533.97;;;39.81;33.54
21086;BME280;34247;50.064;19.970;2023-06-22T07:39:57;99537.13;;;40.32;32.68
21086;BME280;34247;50.064;19.970;2023-06-22T07:41:31;99533.38;;;40.71;32.06
21086;BME280;34247;50.064;19.970;2023-06-22T07:43:07;99524.47;;;41.12;31.35
21086;BME280;34247;50.064;19.970;2023-06-22T07:44:41;99528.56;;;41.38;30.90
21086;BME280;34247;50.064;19.970;2023-06-22T07:46:16;99524.66;;;41.58;30.58
21086;BME280;34247;50.064;19.970;2023-06-22T07:47:50;99522.19;;;41.70;30.50
21086;BME280;34247;50.064;19.970;2023-06-22T07:49:23;99524.94;;;41.75;30.49
21086;BME280;34247;50.064;19.970;2023-06-22T07:50:57;99523.03;;;42.03;29.63
21086;BME280;34247;50.064;19.970;2023-06-22T07:52:32;99520.00;;;42.32;29.56
21086;BME280;34247;50.064;19.970;2023-06-22T07:54:05;99519.28;;;42.40;29.45
21086;BME280;34247;50.064;19.970;2023-06-22T07:55:39;99534.25;;;42.17;30.10
21086;BME280;34247;50.064;19.970;2023-06-22T07:57:13;99527.91;;;41.79;30.46
21086;BME280;34247;50.064;19.970;2023-06-22T07:58:47;99531.78;;;41.08;31.04
21086;BME280;34247;50.064;19.970;2023-06-22T08:00:20;99536.53;;;40.35;32.16
21086;BME280;34247;50.064;19.970;2023-06-22T08:01:55;99534.19;;;39.55;33.02
21086;BME280;34247;50.064;19.970;2023-06-22T08:03:28;99535.97;;;38.81;34.06
21086;BME280;34247;50.064;19.970;2023-06-22T08:05:02;99546.28;;;38.66;33.77
21086;BME280;34247;50.064;19.970;2023-06-22T08:06:52;99550.56;;;39.02;33.15
21086;BME280;34247;50.064;19.970;2023-06-22T08:08:26;99549.13;;;39.20;33.14
21086;BME280;34247;50.064;19.970;2023-06-22T08:09:59;99540.78;;;39.64;32.44
21086;BME280;34247;50.064;19.970;2023-06-22T08:11:33;99547.44;;;40.27;31.38
21086;BME280;34247;50.064;19.970;2023-06-22T08:13:08;99546.72;;;40.69;30.69
21086;BME280;34247;50.064;19.970;2023-06-22T08:14:43;99555.38;;;40.91;30.02
21086;BME280;34247;50.064;19.970;2023-06-22T08:16:16;99554.03;;;40.89;30.39
21086;BME280;34247;50.064;19.970;2023-06-22T08:17:49;99560.13;;;40.91;30.04
21086;BME280;34247;50.064;19.970;2023-06-22T08:19:26;99549.34;;;40.60;30.83